Aérodrome :
LOGIN :

S'inscrire | Disclaimer

   EN    FR    IT 

 










Légende :    VFR   VFR Marginal   IFR   IFR Intensif   IFR Très Intensif
Visi : 
Plafond : 
>= 8 km
>= 3000ft
5 à 8 km
1000 à 3000 ft
1500m à 5 km
500 à 1000 ft
800 à 1500m
200 à 500 ft
< 800m
< 200 ft
Symboles :   Orages  Brouillard  Fortes neiges  Fortes précipitations  Vent > 20 kt
SIGMETs :   Divers  Orages  Givrage  Turbulence  Onde Orograph.  Cendres Volcan.






- Altitude de l'aérodrome : 425 ft
- Code IATA : DTM


EDLW - Dortmund

DERNIER METAR :
  • 021850Z 22005KT 9999 FEW010 BKN046 14/11 Q1014

METARs EXPIRÉS :
  • 021820Z 23004KT 9999 FEW026 BKN040 16/10 Q1014
  • 021750Z VRB04KT 9999 FEW024 BKN041 16/10 Q1014
  • 021720Z 24005KT 9999 BKN037 BKN048 16/10 Q1014
  • 021650Z 24006KT 220V300 9999 FEW011 BKN036 OVC041 16/11 Q1014
  • 021620Z 27005KT 220V360 9999 -RA BKN038 OVC043 16/11 Q1014

TAF TAF EDLW
Valide du 02 à 18h jusqu'au 03 à 18h UTC


021700Z 0218/0318 VRB03KT 9999 SCT035
TEMPO 0301/0306 18006KT
TEMPO 0311/0316 SHRA BKN025CB



MET'MAP, la Météo Aéronautique d'un coup d'oeil ! - Copyright ORBIFLY Décembre 2007 - Disclaimer

ORBIFLY MET'MAP TEAM :

Programmation & Développement : Alexandra Zaïnal
Sur une idée originale de : Baudouin d'Aumeries
Assistance à la programmation : Marc-Olivier Méhu
Soutien technique & logistique : Manuel Goepfert

Contact : metmap@orbifly.com




SOURCES & CREDITS :

   NOAA